Time;durP1;ratioP1;P1;durP2;ratioP2;P2;SDS_P1;SDS_P2;PMS_P1;PMS_P2;Temp;Humidity;BMP_temperature;BMP_pressure;BME280_temperature;BME280_humidity;BME280_pressure;Samples;Min_cycle;Max_cycle;Signal;HPM_P1;HPM_P2
2021/08/06 00:02:07;;;;;;;1.13;0.80;;;23.80;99.90;;;;;;5032254;28;20018;-68
2021/08/06 00:04:36;;;;;;;1.60;1.20;;;23.80;99.90;;;;;;5035115;28;20377;-68
2021/08/06 00:07:02;;;;;;;1.27;1.10;;;23.70;99.90;;;;;;5035096;28;20135;-67
2021/08/06 00:09:28;;;;;;;1.20;1.10;;;23.70;99.90;;;;;;5034878;28;20030;-68
2021/08/06 00:11:57;;;;;;;1.45;1.20;;;23.70;99.90;;;;;;5035341;28;20108;-68
2021/08/06 00:14:26;;;;;;;1.30;0.95;;;23.70;99.90;;;;;;5035216;28;20444;-67
2021/08/06 00:16:53;;;;;;;1.20;1.00;;;23.80;99.90;;;;;;5035398;28;20021;-67
2021/08/06 00:19:19;;;;;;;1.25;1.00;;;23.70;99.90;;;;;;5035185;28;20064;-67
2021/08/06 00:21:44;;;;;;;1.42;0.98;;;23.70;99.90;;;;;;5034716;28;20021;-68
2021/08/06 00:24:10;;;;;;;1.38;1.08;;;23.70;99.90;;;;;;5034921;28;20036;-68
2021/08/06 00:26:35;;;;;;;1.38;0.95;;;23.70;99.90;;;;;;5034673;28;20056;-67
2021/08/06 00:29:01;;;;;;;1.40;1.05;;;23.70;99.90;;;;;;5034783;28;20117;-68
2021/08/06 00:31:27;;;;;;;2.15;1.10;;;23.70;99.90;;;;;;5034764;28;20049;-68
2021/08/06 00:33:52;;;;;;;2.60;0.98;;;23.70;99.90;;;;;;5015227;28;20030;-68
2021/08/06 00:36:18;;;;;;;2.45;1.10;;;23.60;99.90;;;;;;5015103;28;20026;-66
2021/08/06 00:38:43;;;;;;;1.45;0.90;;;23.70;99.90;;;;;;5014692;28;20478;-68
2021/08/06 00:41:09;;;;;;;1.25;1.02;;;23.60;99.90;;;;;;5015058;28;20155;-66
2021/08/06 00:43:35;;;;;;;1.42;1.02;;;23.70;99.90;;;;;;5014548;28;20022;-67
2021/08/06 00:46:02;;;;;;;1.23;1.00;;;23.70;99.90;;;;;;5014755;28;20109;-67
2021/08/06 00:48:28;;;;;;;1.40;1.00;;;23.60;99.90;;;;;;5014444;28;20084;-66
2021/08/06 00:50:54;;;;;;;1.30;0.95;;;23.60;99.90;;;;;;5014974;28;20108;-67
2021/08/06 00:53:22;;;;;;;1.10;0.93;;;23.60;99.90;;;;;;5014634;28;20026;-67
2021/08/06 00:55:49;;;;;;;1.00;0.85;;;23.60;99.90;;;;;;5014381;28;20030;-67
2021/08/06 00:58:15;;;;;;;1.27;0.98;;;23.60;99.90;;;;;;5014415;28;20036;-67
2021/08/06 01:00:41;;;;;;;1.73;1.02;;;23.50;99.90;;;;;;5014256;28;20029;-67
2021/08/06 01:03:14;;;;;;;1.48;1.02;;;23.60;99.90;;;;;;5014376;28;20033;-67
2021/08/06 01:05:44;;;;;;;1.55;1.25;;;23.60;99.90;;;;;;5014216;28;20037;-66
2021/08/06 01:08:19;;;;;;;1.40;1.02;;;23.60;99.90;;;;;;5014345;28;20037;-67
2021/08/06 01:10:57;;;;;;;1.25;1.00;;;23.60;99.90;;;;;;5014271;28;20425;-67
2021/08/06 01:13:50;;;;;;;1.33;1.05;;;23.60;99.90;;;;;;5014383;28;20030;-67
2021/08/06 01:16:17;;;;;;;1.10;0.98;;;23.60;99.90;;;;;;5013734;28;20045;-67
2021/08/06 01:19:14;;;;;;;0.93;0.90;;;23.50;99.90;;;;;;5014050;28;20026;-67
2021/08/06 01:21:48;;;;;;;1.20;0.80;;;23.50;99.90;;;;;;5008025;28;20029;-67
2021/08/06 01:24:17;;;;;;;1.55;1.10;;;23.50;99.90;;;;;;5014126;28;20022;-68
2021/08/06 01:26:45;;;;;;;1.40;0.93;;;23.50;99.90;;;;;;5013736;28;20037;-66
2021/08/06 01:29:12;;;;;;;1.17;0.73;;;23.50;99.90;;;;;;5013986;28;20022;-67
2021/08/06 01:31:38;;;;;;;1.52;0.90;;;23.50;99.90;;;;;;5014786;28;20040;-67
2021/08/06 01:34:03;;;;;;;1.65;0.98;;;23.50;99.90;;;;;;5033660;28;20034;-66
2021/08/06 01:36:29;;;;;;;1.15;0.80;;;23.50;99.90;;;;;;5033362;28;20021;-69
2021/08/06 01:38:56;;;;;;;1.15;0.80;;;23.50;99.90;;;;;;5033965;28;20355;-67
2021/08/06 01:41:53;;;;;;;1.20;0.90;;;23.50;99.90;;;;;;5033607;28;20034;-67
2021/08/06 01:44:28;;;;;;;1.17;0.90;;;23.50;99.90;;;;;;5033492;28;20033;-66
2021/08/06 01:47:08;;;;;;;1.08;0.98;;;23.50;99.90;;;;;;5033949;28;20025;-67
2021/08/06 01:49:50;;;;;;;1.92;1.05;;;23.50;99.90;;;;;;5033022;28;20041;-67
2021/08/06 01:52:19;;;;;;;1.85;0.82;;;23.40;99.90;;;;;;5033250;28;20021;-67
2021/08/06 01:54:48;;;;;;;1.20;0.80;;;23.50;99.90;;;;;;5032839;28;20041;-66
2021/08/06 01:57:14;;;;;;;1.13;0.98;;;23.40;99.90;;;;;;5015574;28;20045;-66
2021/08/06 01:59:42;;;;;;;1.20;1.08;;;23.40;99.90;;;;;;5032984;28;20393;-67
2021/08/06 02:02:09;;;;;;;1.27;0.90;;;23.40;99.90;;;;;;5033075;28;20075;-66
2021/08/06 02:04:34;;;;;;;1.33;0.98;;;23.40;99.90;;;;;;5032858;28;20537;-67
2021/08/06 02:07:00;;;;;;;0.95;0.73;;;23.40;99.90;;;;;;5033123;28;20101;-67
2021/08/06 02:09:26;;;;;;;0.85;0.85;;;23.40;99.90;;;;;;5033302;28;20465;-67
2021/08/06 02:11:53;;;;;;;1.50;0.90;;;23.40;99.90;;;;;;5033214;28;20104;-67
2021/08/06 02:14:20;;;;;;;1.25;0.82;;;23.40;99.90;;;;;;5032969;28;20034;-66
2021/08/06 02:16:47;;;;;;;1.58;0.98;;;23.40;99.90;;;;;;5032623;28;20093;-67
2021/08/06 02:19:15;;;;;;;1.23;0.70;;;23.40;99.90;;;;;;5032651;28;20029;-67
2021/08/06 02:21:44;;;;;;;0.90;0.77;;;23.30;99.90;;;;;;5032423;28;20508;-66
2021/08/06 02:24:12;;;;;;;1.27;0.98;;;23.30;99.90;;;;;;5032846;28;20044;-66
2021/08/06 02:26:41;;;;;;;1.17;0.82;;;23.40;99.90;;;;;;5031961;28;20083;-67
2021/08/06 02:29:11;;;;;;;1.02;0.80;;;23.30;99.90;;;;;;5032594;28;20060;-66
2021/08/06 02:31:39;;;;;;;1.00;0.80;;;23.30;99.90;;;;;;5031086;28;20472;-66
2021/08/06 02:34:05;;;;;;;0.75;0.60;;;23.30;99.90;;;;;;5012719;28;20482;-66
2021/08/06 02:36:33;;;;;;;0.98;0.80;;;23.30;99.90;;;;;;5012419;28;20034;-67
2021/08/06 02:38:59;;;;;;;1.20;1.00;;;23.30;99.90;;;;;;5012731;28;20390;-66
2021/08/06 02:41:28;;;;;;;1.10;0.90;;;23.30;99.90;;;;;;5012934;28;20018;-66
2021/08/06 02:43:55;;;;;;;1.00;0.90;;;23.30;99.90;;;;;;5012857;28;20510;-66
2021/08/06 02:46:20;;;;;;;1.30;0.90;;;23.30;99.90;;;;;;5012516;28;20026;-66
2021/08/06 02:48:46;;;;;;;2.33;0.90;;;23.30;99.90;;;;;;5012133;28;20125;-66
2021/08/06 02:51:12;;;;;;;1.25;0.93;;;23.20;99.90;;;;;;5012609;28;20022;-66
2021/08/06 02:53:37;;;;;;;0.80;0.60;;;23.20;99.90;;;;;;5012175;28;20021;-66
2021/08/06 02:56:03;;;;;;;1.10;0.75;;;23.20;99.90;;;;;;5012404;28;20033;-66
2021/08/06 02:58:29;;;;;;;2.30;0.80;;;23.20;99.90;;;;;;5012169;28;20087;-67
2021/08/06 03:00:55;;;;;;;1.00;0.80;;;23.30;99.90;;;;;;5012541;28;20032;-66
2021/08/06 03:03:20;;;;;;;1.00;0.70;;;23.20;99.90;;;;;;5012387;28;20022;-66
2021/08/06 03:05:46;;;;;;;1.40;0.82;;;23.20;99.90;;;;;;5012003;28;20064;-66
2021/08/06 03:08:12;;;;;;;1.05;0.68;;;23.20;99.90;;;;;;5012243;28;20378;-67
2021/08/06 03:10:37;;;;;;;1.02;0.70;;;23.20;99.90;;;;;;5011979;28;20022;-66
2021/08/06 03:13:03;;;;;;;0.88;0.77;;;23.20;99.90;;;;;;5012098;28;20433;-66
2021/08/06 03:15:29;;;;;;;0.93;0.80;;;23.20;99.90;;;;;;5011725;28;20085;-66
2021/08/06 03:17:55;;;;;;;1.65;0.85;;;23.20;99.90;;;;;;5012340;28;20478;-66
2021/08/06 03:20:22;;;;;;;1.05;0.77;;;23.20;99.90;;;;;;5012002;28;20120;-66
2021/08/06 03:22:49;;;;;;;0.90;0.77;;;23.10;99.90;;;;;;5011893;28;20026;-65
2021/08/06 03:25:16;;;;;;;1.70;0.80;;;23.20;99.90;;;;;;5012019;28;20021;-66
2021/08/06 03:27:42;;;;;;;1.58;0.70;;;23.10;99.90;;;;;;5011900;28;20378;-66
2021/08/06 03:30:10;;;;;;;1.20;0.60;;;23.10;99.90;;;;;;5011851;28;20026;-66
2021/08/06 03:32:37;;;;;;;1.33;0.80;;;23.10;99.90;;;;;;5020540;28;20455;-66
2021/08/06 03:35:03;;;;;;;1.00;0.70;;;23.10;99.90;;;;;;5031504;28;20140;-66
2021/08/06 03:37:29;;;;;;;1.58;0.73;;;23.10;99.90;;;;;;5030366;28;20079;-66
2021/08/06 03:39:55;;;;;;;1.08;0.70;;;23.00;99.90;;;;;;5031823;28;20033;-65
2021/08/06 03:42:20;;;;;;;1.02;0.70;;;23.10;99.90;;;;;;5031454;28;20022;-66
2021/08/06 03:44:46;;;;;;;1.20;0.80;;;23.10;99.90;;;;;;5031149;28;20113;-66
2021/08/06 03:47:12;;;;;;;0.70;0.55;;;23.00;99.90;;;;;;5031572;28;20466;-66
2021/08/06 03:49:37;;;;;;;1.50;0.85;;;23.00;99.90;;;;;;5013471;28;20478;-66
2021/08/06 03:52:03;;;;;;;1.63;0.88;;;23.00;99.90;;;;;;5031373;28;20036;-66
2021/08/06 03:54:29;;;;;;;1.15;0.80;;;23.00;99.90;;;;;;5031023;28;20061;-66
2021/08/06 03:56:54;;;;;;;1.00;0.68;;;23.10;99.90;;;;;;5031594;28;20025;-65
2021/08/06 03:59:20;;;;;;;0.85;0.70;;;23.10;99.90;;;;;;5031225;28;20032;-66
2021/08/06 04:01:46;;;;;;;1.27;0.80;;;23.00;99.90;;;;;;5031178;28;20358;-66
2021/08/06 04:04:11;;;;;;;1.05;0.73;;;23.10;99.90;;;;;;5031299;28;20044;-66
2021/08/06 04:06:37;;;;;;;0.95;0.80;;;23.10;99.90;;;;;;5031035;28;20044;-65
2021/08/06 04:09:03;;;;;;;0.98;0.70;;;23.00;99.90;;;;;;5031311;28;20111;-66
2021/08/06 04:11:28;;;;;;;1.00;0.60;;;23.00;99.90;;;;;;5030971;28;20025;-66
2021/08/06 04:13:56;;;;;;;1.58;0.80;;;23.00;99.90;;;;;;5031332;28;20160;-66
2021/08/06 04:16:22;;;;;;;1.13;0.70;;;23.00;99.90;;;;;;5031161;28;20021;-65
2021/08/06 04:18:47;;;;;;;0.93;0.80;;;23.00;99.90;;;;;;5030861;28;20417;-66
2021/08/06 04:21:13;;;;;;;1.17;0.70;;;23.00;99.90;;;;;;5031115;28;20032;-66
2021/08/06 04:23:38;;;;;;;0.95;0.70;;;23.00;99.90;;;;;;5031016;28;20025;-66
2021/08/06 04:26:04;;;;;;;2.47;0.88;;;23.00;99.90;;;;;;5030924;28;20460;-66
2021/08/06 04:28:30;;;;;;;0.75;0.60;;;23.00;99.90;;;;;;5030930;28;20026;-65
2021/08/06 04:31:00;;;;;;;1.35;0.70;;;23.00;99.90;;;;;;5031481;28;20030;-65
2021/08/06 04:33:26;;;;;;;1.70;0.70;;;22.90;99.90;;;;;;5015268;28;20358;-66
2021/08/06 04:35:52;;;;;;;1.65;0.88;;;22.90;99.90;;;;;;5011700;28;20038;-66
2021/08/06 04:38:17;;;;;;;1.10;0.80;;;23.00;99.90;;;;;;5011218;28;20029;-65
2021/08/06 04:40:43;;;;;;;1.55;1.00;;;22.90;99.90;;;;;;5010918;28;20064;-66
2021/08/06 04:43:09;;;;;;;0.95;0.68;;;23.00;99.90;;;;;;5011180;28;20029;-66
2021/08/06 04:45:34;;;;;;;1.33;0.90;;;22.90;99.90;;;;;;5010957;28;20471;-66
2021/08/06 04:48:03;;;;;;;1.13;0.88;;;23.00;99.90;;;;;;5011545;28;20026;-65
2021/08/06 04:50:30;;;;;;;0.82;0.65;;;22.90;99.90;;;;;;5014360;28;20029;-66
2021/08/06 04:52:57;;;;;;;1.02;0.60;;;23.00;99.90;;;;;;5015065;28;20030;-66
2021/08/06 04:55:26;;;;;;;1.20;0.80;;;23.00;99.90;;;;;;4997264;28;20034;-68
2021/08/06 04:57:52;;;;;;;1.27;0.80;;;23.00;99.90;;;;;;5014849;28;20048;-66
2021/08/06 05:00:19;;;;;;;1.05;0.80;;;22.90;99.90;;;;;;5014391;28;20034;-65
2021/08/06 05:02:45;;;;;;;1.00;0.60;;;23.00;99.90;;;;;;5014306;28;20386;-65
2021/08/06 05:05:12;;;;;;;1.45;1.00;;;22.90;99.90;;;;;;5014677;28;20022;-66
2021/08/06 05:07:37;;;;;;;1.35;0.73;;;22.90;99.90;;;;;;5014160;28;20037;-66
2021/08/06 05:10:04;;;;;;;0.70;0.60;;;23.00;99.90;;;;;;5014384;28;20367;-65
2021/08/06 05:12:30;;;;;;;1.45;0.90;;;23.00;99.90;;;;;;5014090;28;20029;-66
2021/08/06 05:14:55;;;;;;;2.03;0.80;;;23.00;99.90;;;;;;5014384;28;20084;-65
2021/08/06 05:17:21;;;;;;;1.75;0.90;;;23.00;99.90;;;;;;5014215;28;20026;-66
2021/08/06 05:19:47;;;;;;;1.00;0.80;;;23.00;99.90;;;;;;5013919;28;20037;-65
2021/08/06 05:22:13;;;;;;;1.10;0.65;;;23.20;99.90;;;;;;5014285;28;20097;-66
2021/08/06 05:24:38;;;;;;;2.03;0.68;;;23.20;99.90;;;;;;5013895;28;20029;-66
2021/08/06 05:27:05;;;;;;;0.98;0.80;;;23.20;99.90;;;;;;5013985;28;20394;-67
2021/08/06 05:29:32;;;;;;;1.30;0.68;;;23.20;99.90;;;;;;5014050;28;20402;-66
2021/08/06 05:31:58;;;;;;;1.48;0.80;;;23.20;99.90;;;;;;5017756;28;20013;-68
2021/08/06 05:34:23;;;;;;;1.15;0.80;;;23.20;99.90;;;;;;5033887;28;20056;-67
2021/08/06 05:36:49;;;;;;;1.65;0.63;;;23.30;99.90;;;;;;5033438;28;20026;-68
2021/08/06 05:39:15;;;;;;;1.55;0.68;;;23.30;99.90;;;;;;5033523;28;20094;-67
2021/08/06 05:41:40;;;;;;;1.98;0.82;;;23.30;99.90;;;;;;5033324;28;20418;-65
2021/08/06 05:44:06;;;;;;;1.17;0.70;;;23.30;99.90;;;;;;5033452;28;20038;-67
2021/08/06 05:46:32;;;;;;;1.15;0.75;;;23.30;99.90;;;;;;5033449;28;20022;-68
2021/08/06 05:48:57;;;;;;;1.17;0.60;;;23.30;99.90;;;;;;5033353;28;20029;-68
2021/08/06 05:51:23;;;;;;;2.13;0.82;;;23.30;99.90;;;;;;5015865;28;20075;-67
2021/08/06 05:53:48;;;;;;;1.85;0.50;;;23.30;99.90;;;;;;5033014;28;20033;-68
2021/08/06 05:56:14;;;;;;;1.10;0.70;;;23.30;99.90;;;;;;5033290;28;20030;-68
2021/08/06 05:58:41;;;;;;;1.10;0.70;;;23.30;99.90;;;;;;5033055;28;20032;-65
2021/08/06 06:01:06;;;;;;;1.27;0.75;;;23.30;99.90;;;;;;5032215;28;20025;-67
2021/08/06 06:03:32;;;;;;;1.40;0.60;;;23.20;99.90;;;;;;5032873;28;20529;-67
2021/08/06 06:05:58;;;;;;;1.52;0.65;;;23.20;99.90;;;;;;5033045;28;20037;-67
2021/08/06 06:08:23;;;;;;;2.10;0.90;;;23.20;99.90;;;;;;5033260;28;20057;-67
2021/08/06 06:10:49;;;;;;;1.35;0.70;;;23.20;99.90;;;;;;5032735;28;20083;-67
2021/08/06 06:13:14;;;;;;;1.20;0.70;;;23.20;99.90;;;;;;5033019;28;20033;-67
2021/08/06 06:15:40;;;;;;;1.42;0.73;;;23.30;99.90;;;;;;5032656;28;20424;-66
2021/08/06 06:18:07;;;;;;;1.38;0.60;;;23.30;99.90;;;;;;5032883;28;20032;-66
2021/08/06 06:20:33;;;;;;;0.90;0.63;;;23.30;99.90;;;;;;5032520;28;20022;-66
2021/08/06 06:22:58;;;;;;;2.40;0.70;;;23.30;99.90;;;;;;5032733;28;20488;-66
2021/08/06 06:25:24;;;;;;;1.75;0.80;;;23.30;99.90;;;;;;5033108;28;20087;-66
2021/08/06 06:27:56;;;;;;;1.42;0.75;;;23.40;99.90;;;;;;5032485;28;20532;-66
2021/08/06 06:30:24;;;;;;;1.67;0.68;;;23.30;99.90;;;;;;5032580;28;20029;-66
2021/08/06 06:32:51;;;;;;;1.90;0.80;;;23.30;99.90;;;;;;5021353;28;20025;-66
2021/08/06 06:35:17;;;;;;;1.50;0.80;;;23.30;99.90;;;;;;5012860;28;20552;-66
2021/08/06 06:37:43;;;;;;;1.50;0.73;;;23.30;99.90;;;;;;5012449;28;20030;-66
2021/08/06 06:40:09;;;;;;;1.50;0.70;;;23.30;99.90;;;;;;5012580;28;20033;-66
2021/08/06 06:42:35;;;;;;;1.48;0.70;;;23.30;99.90;;;;;;5012301;28;20057;-66
2021/08/06 06:45:00;;;;;;;1.27;0.70;;;23.30;99.90;;;;;;5030939;28;20029;-66
2021/08/06 06:47:33;;;;;;;1.40;0.70;;;23.40;99.90;;;;;;5052508;28;20485;-66
2021/08/06 06:49:59;;;;;;;1.83;0.70;;;23.40;99.90;;;;;;5049647;28;20036;-66
2021/08/06 06:52:24;;;;;;;1.58;0.68;;;23.40;99.90;;;;;;5032452;28;20022;-66
2021/08/06 06:54:50;;;;;;;0.90;0.70;;;23.50;99.90;;;;;;5032833;28;20397;-66
2021/08/06 06:57:15;;;;;;;1.73;0.90;;;23.50;99.90;;;;;;5031354;28;20100;-67
2021/08/06 06:59:42;;;;;;;1.95;0.90;;;23.50;99.90;;;;;;5031150;28;20044;-66
2021/08/06 07:02:07;;;;;;;1.27;0.70;;;23.60;99.90;;;;;;5031680;28;20025;-67
2021/08/06 07:04:33;;;;;;;1.95;0.95;;;23.60;99.90;;;;;;5031200;28;20071;-67
2021/08/06 07:06:59;;;;;;;3.88;0.82;;;23.90;99.90;;;;;;5022780;28;20052;-66
2021/08/06 07:09:24;;;;;;;3.25;0.85;;;23.80;99.90;;;;;;5020347;28;20033;-66
2021/08/06 07:11:50;;;;;;;10.13;1.15;;;23.70;99.90;;;;;;5028150;28;20134;-68
2021/08/06 07:14:15;;;;;;;6.32;1.40;;;23.50;99.90;;;;;;5031776;28;20021;-68
2021/08/06 07:16:41;;;;;;;3.10;1.02;;;24.00;99.90;;;;;;5031653;28;20033;-67
2021/08/06 07:19:06;;;;;;;2.67;1.20;;;24.20;99.90;;;;;;5031765;28;20021;-68
2021/08/06 07:21:32;;;;;;;3.15;1.10;;;24.10;99.90;;;;;;5027386;28;20525;-68
2021/08/06 07:23:58;;;;;;;2.67;1.10;;;24.10;99.90;;;;;;5031745;28;20053;-67
2021/08/06 07:26:24;;;;;;;3.92;1.10;;;23.90;99.90;;;;;;5032002;28;20116;-70
2021/08/06 07:28:49;;;;;;;3.67;1.35;;;23.80;99.90;;;;;;5031513;28;20032;-67
2021/08/06 07:31:15;;;;;;;3.05;1.10;;;23.70;99.90;;;;;;5031635;28;20033;-66
2021/08/06 07:33:40;;;;;;;4.97;1.10;;;23.80;99.90;;;;;;5031334;28;20044;-69
2021/08/06 07:36:06;;;;;;;3.90;1.08;;;23.80;99.90;;;;;;5030687;28;20037;-68
2021/08/06 07:38:32;;;;;;;3.00;0.95;;;23.80;99.90;;;;;;5031263;28;20374;-66
2021/08/06 07:40:57;;;;;;;3.33;0.93;;;23.80;99.90;;;;;;5031524;28;20040;-66
2021/08/06 07:43:23;;;;;;;4.45;1.25;;;23.80;99.90;;;;;;5031990;28;20025;-65
2021/08/06 07:45:48;;;;;;;3.22;1.00;;;23.60;99.90;;;;;;5031139;28;20377;-65
2021/08/06 07:48:15;;;;;;;3.38;1.15;;;23.60;99.90;;;;;;5031383;28;20025;-65
2021/08/06 07:50:41;;;;;;;5.20;1.40;;;23.60;99.90;;;;;;5030975;28;20034;-66
2021/08/06 07:53:07;;;;;;;4.80;1.10;;;23.60;99.90;;;;;;5031423;28;20100;-66
2021/08/06 07:55:33;;;;;;;2.70;0.82;;;23.40;99.90;;;;;;5031035;28;20393;-65
2021/08/06 07:57:59;;;;;;;2.47;0.88;;;23.20;99.90;;;;;;5031286;28;20022;-63
2021/08/06 08:00:24;;;;;;;3.55;0.90;;;23.40;99.90;;;;;;5031813;28;20032;-68
2021/08/06 08:02:51;;;;;;;1.65;0.70;;;23.40;99.90;;;;;;5031022;28;20092;-68
2021/08/06 08:05:20;;;;;;;7.38;0.90;;;23.40;99.90;;;;;;5029317;28;20394;-69
2021/08/06 08:07:46;;;;;;;2.85;0.90;;;23.40;99.90;;;;;;5019924;28;20522;-68
2021/08/06 08:10:12;;;;;;;1.55;0.68;;;23.40;99.90;;;;;;5018146;28;20425;-68
2021/08/06 08:12:38;;;;;;;2.70;0.77;;;23.30;99.90;;;;;;5011331;28;20046;-68
2021/08/06 08:15:06;;;;;;;1.75;0.70;;;23.20;99.90;;;;;;5011363;28;20069;-68
2021/08/06 08:17:32;;;;;;;4.82;1.20;;;23.20;99.90;;;;;;5011158;28;20056;-68
2021/08/06 08:19:57;;;;;;;2.47;0.80;;;23.20;99.90;;;;;;5026994;28;20040;-68
2021/08/06 08:22:23;;;;;;;3.08;0.90;;;23.10;99.90;;;;;;5011734;28;20021;-66
2021/08/06 08:24:48;;;;;;;4.15;1.10;;;23.20;99.90;;;;;;5021085;28;20021;-67
2021/08/06 08:27:14;;;;;;;2.25;0.80;;;23.00;99.90;;;;;;5034919;28;20108;-67
2021/08/06 08:29:41;;;;;;;4.05;0.82;;;22.80;99.90;;;;;;5033761;28;20466;-67
2021/08/06 08:32:06;;;;;;;2.05;0.82;;;22.80;99.90;;;;;;5034857;28;20029;-68
2021/08/06 08:34:32;;;;;;;3.50;0.85;;;22.70;99.90;;;;;;5027569;28;20034;-67
2021/08/06 08:36:58;;;;;;;3.75;1.13;;;22.70;99.90;;;;;;5014857;28;20107;-68
2021/08/06 08:39:23;;;;;;;4.70;1.23;;;22.70;99.90;;;;;;5015512;28;20029;-67
2021/08/06 08:41:49;;;;;;;3.17;0.95;;;22.70;99.90;;;;;;5033979;28;20488;-67
2021/08/06 08:44:15;;;;;;;2.10;0.80;;;22.70;99.90;;;;;;5034658;28;20041;-67
2021/08/06 08:46:45;;;;;;;2.22;1.00;;;22.70;99.90;;;;;;5023819;28;20018;-67
2021/08/06 08:49:11;;;;;;;4.07;1.25;;;22.70;99.90;;;;;;5018624;28;20108;-67
2021/08/06 08:51:40;;;;;;;4.40;0.95;;;22.70;99.90;;;;;;5021933;28;20029;-67
2021/08/06 08:54:06;;;;;;;2.88;0.80;;;22.70;99.90;;;;;;5033012;28;20029;-67
2021/08/06 08:56:31;;;;;;;3.22;0.90;;;22.70;99.90;;;;;;5034158;28;20091;-68
2021/08/06 08:58:57;;;;;;;3.88;0.90;;;22.80;99.90;;;;;;5034377;28;20022;-69
2021/08/06 09:01:24;;;;;;;3.78;0.90;;;22.90;99.90;;;;;;5034613;28;20023;-67
2021/08/06 09:03:50;;;;;;;3.83;1.15;;;22.90;99.90;;;;;;5034198;28;20428;-68
2021/08/06 09:06:16;;;;;;;3.40;0.90;;;22.90;99.90;;;;;;5034263;28;20030;-68
2021/08/06 09:08:43;;;;;;;4.03;1.10;;;22.90;99.90;;;;;;5033044;28;20029;-67
2021/08/06 09:11:29;;;;;;;2.22;0.70;;;22.90;99.90;;;;;;5033502;28;20117;-68
2021/08/06 09:14:14;;;;;;;3.75;1.00;;;22.90;99.90;;;;;;5033983;28;20045;-68
2021/08/06 09:17:07;;;;;;;2.08;0.80;;;22.90;99.90;;;;;;5033717;28;20030;-68
2021/08/06 09:19:38;;;;;;;2.38;0.68;;;22.90;99.90;;;;;;5032796;28;20034;-68
2021/08/06 09:22:24;;;;;;;2.17;0.90;;;22.90;99.90;;;;;;5033216;28;20026;-68
2021/08/06 09:24:56;;;;;;;3.28;0.88;;;22.90;99.90;;;;;;5014495;28;20553;-68
2021/08/06 09:27:22;;;;;;;3.17;0.90;;;22.90;99.90;;;;;;5033312;28;20036;-68
2021/08/06 09:29:47;;;;;;;2.05;0.80;;;23.00;99.90;;;;;;5033565;28;20381;-68
2021/08/06 09:32:13;;;;;;;2.92;1.10;;;23.00;99.90;;;;;;5033564;28;20549;-68
2021/08/06 09:34:43;;;;;;;3.20;1.08;;;23.00;99.90;;;;;;5032035;28;20087;-69
2021/08/06 09:37:16;;;;;;;2.72;0.93;;;23.00;99.90;;;;;;5033619;28;20059;-68
2021/08/06 09:39:49;;;;;;;3.22;1.15;;;23.00;99.90;;;;;;5033206;28;20124;-69
2021/08/06 09:42:18;;;;;;;2.65;1.27;;;23.00;99.90;;;;;;5033553;28;20036;-68
2021/08/06 09:44:45;;;;;;;2.80;1.00;;;23.00;99.90;;;;;;5033372;28;20171;-68
2021/08/06 09:47:21;;;;;;;2.05;0.88;;;23.10;99.90;;;;;;5033279;28;20017;-68
2021/08/06 09:49:53;;;;;;;3.25;0.82;;;23.10;99.90;;;;;;5032936;28;20045;-69
2021/08/06 09:52:37;;;;;;;3.95;0.80;;;23.10;99.90;;;;;;5033174;28;20021;-68
2021/08/06 09:55:04;;;;;;;2.33;0.82;;;23.10;99.90;;;;;;5033385;28;20417;-68
2021/08/06 09:57:30;;;;;;;2.03;0.80;;;23.20;99.90;;;;;;5032937;28;20025;-68
2021/08/06 09:59:58;;;;;;;2.40;0.90;;;23.20;99.90;;;;;;5033468;28;20087;-68
2021/08/06 10:02:30;;;;;;;2.72;0.90;;;23.10;99.90;;;;;;5033538;28;20416;-68
2021/08/06 10:05:12;;;;;;;1.75;0.50;;;23.10;99.90;;;;;;5033459;28;20042;-68
2021/08/06 10:07:41;;;;;;;1.58;0.80;;;23.20;99.90;;;;;;5015188;28;20032;-68
2021/08/06 10:10:10;;;;;;;1.42;0.60;;;23.20;99.90;;;;;;5032933;28;20045;-68
2021/08/06 10:12:36;;;;;;;2.08;0.82;;;23.10;99.90;;;;;;5032792;28;20075;-68
2021/08/06 10:15:03;;;;;;;1.17;0.70;;;23.10;99.90;;;;;;5032891;28;20038;-68
2021/08/06 10:17:28;;;;;;;2.05;0.75;;;23.10;99.90;;;;;;5032585;28;20403;-68
2021/08/06 10:19:54;;;;;;;1.63;0.63;;;23.10;99.90;;;;;;5033104;28;20086;-68
2021/08/06 10:22:20;;;;;;;2.08;0.70;;;23.10;99.90;;;;;;5033014;28;20025;-69
2021/08/06 10:24:50;;;;;;;2.58;0.90;;;23.10;99.90;;;;;;5032474;28;20364;-68
2021/08/06 10:27:21;;;;;;;2.08;0.80;;;23.10;99.90;;;;;;5032631;28;20017;-69
2021/08/06 10:30:22;;;;;;;1.88;0.90;;;23.00;99.90;;;;;;5032459;28;20432;-68
2021/08/06 10:33:05;;;;;;;1.75;0.75;;;23.10;99.90;;;;;;5032397;28;20067;-69
2021/08/06 10:35:44;;;;;;;2.13;1.15;;;23.10;99.90;;;;;;5032292;28;20029;-69
2021/08/06 10:38:11;;;;;;;1.90;0.82;;;23.10;99.90;;;;;;5032435;28;20014;-69
2021/08/06 10:40:39;;;;;;;4.03;0.82;;;23.00;99.90;;;;;;5032058;28;20025;-69
2021/08/06 10:43:11;;;;;;;2.72;0.80;;;23.10;99.90;;;;;;5032395;28;20025;-69
2021/08/06 10:45:55;;;;;;;1.95;0.90;;;23.10;99.90;;;;;;5031548;28;20485;-68
2021/08/06 10:48:34;;;;;;;1.67;0.77;;;23.20;99.90;;;;;;5032253;28;20025;-68
2021/08/06 10:51:15;;;;;;;1.45;0.70;;;23.30;99.90;;;;;;5032158;28;20033;-69
2021/08/06 10:53:47;;;;;;;1.20;0.60;;;23.30;99.90;;;;;;5031845;28;20104;-69
2021/08/06 10:56:16;;;;;;;1.98;0.75;;;23.30;99.90;;;;;;5032341;28;20378;-69
2021/08/06 10:58:53;;;;;;;2.10;0.75;;;23.30;99.90;;;;;;5031908;28;20105;-68
2021/08/06 11:01:31;;;;;;;1.10;0.63;;;23.30;99.90;;;;;;5032265;28;20462;-68
2021/08/06 11:04:02;;;;;;;1.30;0.60;;;23.20;99.90;;;;;;5032216;28;20029;-69
2021/08/06 11:06:38;;;;;;;1.52;0.70;;;23.20;99.90;;;;;;5031707;28;20022;-68
2021/08/06 11:11:56;;;;;;;2.08;0.77;;;23.20;99.90;;;;;;5017522;28;20499;-68
2021/08/06 11:14:27;;;;;;;1.35;0.70;;;23.20;99.90;;;;;;5031965;28;20044;-68
2021/08/06 11:17:16;;;;;;;1.02;0.50;;;23.20;99.90;;;;;;5032062;28;20028;-68
2021/08/06 11:19:56;;;;;;;1.90;0.70;;;23.20;99.90;;;;;;5031786;28;20025;-68
2021/08/06 11:22:37;;;;;;;1.40;0.70;;;23.20;99.90;;;;;;5031848;28;20021;-68
2021/08/06 11:25:26;;;;;;;1.38;0.60;;;23.20;99.90;;;;;;5030356;28;20033;-68
2021/08/06 11:28:01;;;;;;;1.20;0.68;;;23.20;99.90;;;;;;5007215;28;20100;-68
2021/08/06 11:30:36;;;;;;;3.30;0.60;;;23.20;99.90;;;;;;5031509;28;20041;-68
2021/08/06 11:33:10;;;;;;;1.10;0.63;;;23.20;99.90;;;;;;5031818;28;20022;-68
2021/08/06 11:35:40;;;;;;;1.35;0.70;;;23.20;99.90;;;;;;5031157;28;20401;-67
2021/08/06 11:38:08;;;;;;;1.63;0.55;;;23.20;99.90;;;;;;5031658;28;20031;-67
2021/08/06 11:40:56;;;;;;;1.88;0.73;;;23.20;99.90;;;;;;5031378;28;20030;-65
2021/08/06 11:43:22;;;;;;;2.20;0.70;;;23.20;99.90;;;;;;5033716;28;20025;-68
2021/08/06 11:45:51;;;;;;;2.08;0.57;;;23.30;99.90;;;;;;5020589;28;20031;-66
2021/08/06 11:48:17;;;;;;;5.20;0.90;;;23.30;99.90;;;;;;5019176;28;20037;-73
2021/08/06 11:50:45;;;;;;;1.50;0.70;;;23.30;99.90;;;;;;5020128;28;20504;-68
2021/08/06 11:53:23;;;;;;;2.05;0.85;;;23.30;99.90;;;;;;5021110;28;20026;-70
2021/08/06 11:55:50;;;;;;;1.20;0.65;;;23.30;99.90;;;;;;5020510;28;20037;-78
2021/08/06 11:58:28;;;;;;;2.20;0.90;;;23.30;99.90;;;;;;5020172;28;20485;-72
2021/08/06 12:00:53;;;;;;;2.05;0.60;;;23.30;99.90;;;;;;5032956;28;20389;-67
2021/08/06 12:03:19;;;;;;;1.42;0.55;;;23.30;99.90;;;;;;5037304;28;20028;-65
2021/08/06 12:05:47;;;;;;;2.05;0.63;;;23.30;99.90;;;;;;5038023;28;20429;-68
2021/08/06 12:08:19;;;;;;;2.33;0.60;;;23.30;99.90;;;;;;5038470;28;20373;-71
2021/08/06 12:10:47;;;;;;;2.60;0.60;;;23.40;99.90;;;;;;5032327;28;20056;-72
2021/08/06 12:13:15;;;;;;;2.08;0.50;;;23.40;99.90;;;;;;5037219;28;20367;-69
2021/08/06 12:15:41;;;;;;;0.98;0.70;;;23.40;99.90;;;;;;5036385;28;20041;-72
2021/08/06 12:18:19;;;;;;;1.48;0.60;;;23.30;99.90;;;;;;5037874;28;20082;-70
2021/08/06 12:20:53;;;;;;;2.90;0.85;;;23.30;99.90;;;;;;5035037;28;20025;-70
2021/08/06 12:23:20;;;;;;;0.90;0.50;;;23.40;99.90;;;;;;5035209;28;20030;-71
2021/08/06 12:26:13;;;;;;;1.10;0.50;;;23.30;99.90;;;;;;5035700;28;20033;-71
2021/08/06 12:28:42;;;;;;;1.95;0.50;;;23.30;99.90;;;;;;5035487;28;20096;-66
2021/08/06 12:31:26;;;;;;;0.95;0.65;;;23.40;99.90;;;;;;5023881;28;20072;-68
2021/08/06 12:34:07;;;;;;;3.45;0.70;;;23.40;99.90;;;;;;5015313;28;20161;-73
2021/08/06 12:36:35;;;;;;;1.67;0.50;;;23.40;99.90;;;;;;5014974;28;20026;-70
2021/08/06 12:39:10;;;;;;;0.93;0.63;;;23.30;99.90;;;;;;5017838;28;20083;-66
2021/08/06 12:41:36;;;;;;;3.25;0.85;;;23.30;99.90;;;;;;5033511;28;20480;-71
2021/08/06 12:44:22;;;;;;;3.90;0.80;;;23.40;99.90;;;;;;5017046;28;20120;-72
2021/08/06 12:47:18;;;;;;;2.10;0.70;;;23.40;99.90;;;;;;5034521;28;20021;-78
2021/08/06 12:49:54;;;;;;;1.42;0.50;;;23.50;99.90;;;;;;5021761;28;20045;-76
2021/08/06 12:52:23;;;;;;;1.90;0.85;;;23.50;99.90;;;;;;5033583;28;20022;-75
2021/08/06 12:54:54;;;;;;;3.63;0.73;;;23.50;99.90;;;;;;5017203;28;20096;-73
2021/08/06 12:57:40;;;;;;;3.60;0.65;;;23.60;99.90;;;;;;5018909;28;20041;-70
2021/08/06 13:00:24;;;;;;;2.92;0.80;;;23.60;99.90;;;;;;5034457;28;20026;-74